Tiempo atmosférico en la estación meteorológica de Adra,club Naútico, Almería (8 m.)



Fecha
DESCASC
Temp. máxima en grados centígrados (hora)
DESCASC
Temp. mínima en grados centígrados (hora)
DESCASC
Temp. media en grados centígrados
DESCASC
Racha de viento máxima en m/sg (hora)
DESCASC
Velocidad máxima media en intervalos de 10 minutos(hora)
DESCASC
Precipitaciones diarias en mm
DESCASC
Precipitaciones de 00:00 a 06:00 en mm
DESCASC
Precipitaciones de 06:00 a 12:00 en mm
DESCASC
Precipitaciones de 12:00 a 18:00 en mm
DESCASC
Precipitaciones de 18:00 a 24:00 en mm
DESCASC

Gráficas

Temp. máximas Temp. mínimas Temp. medias Precipitaciones Rachas de viento máximas Velocidades máximas media en intervalos de 10 minutos

Datos horarios

Fecha y hora oficial Temperatura (ºC) Velocidad del viento (km/h) Dirección del viento Racha (km/h) Dirección de racha Precipitación (mm) Presión (hPa) Tendencia (hPa) Humedad (%)
2018-05-21 23:00:00 18.4 12 Oeste 20 Oeste 0 1013.3 1.5 86
2018-05-21 22:00:00 18.5 15 Oeste 27 Oeste 0 1012.5 0.6 86
2018-05-21 21:00:00 18.9 20 Oeste 30 Sudoeste 0 1012.3 0.8 82
2018-05-21 20:00:00 19.2 18 Oeste 31 Oeste 0 1011.8 0.9 78
2018-05-21 19:00:00 19.4 19 Oeste 28 Oeste 0 1011.9 0.2 81
2018-05-21 18:00:00 19.7 18 Oeste 26 Oeste 0 1011.5 -0.8 78
2018-05-21 17:00:00 20.4 13 Sudoeste 22 Sudoeste 0 1010.9 -1.7 77
2018-05-21 16:00:00 20 13 Sudoeste 22 Sudoeste 0 1011.7 -0.6 76
2018-05-21 15:00:00 20 9 Sudoeste 15 Sudoeste 0 1012.3 0.1 76
2018-05-21 14:00:00 20 9 Sudoeste 16 Sudoeste 0 1012.6 0.2 75
2018-05-21 13:00:00 21.2 6 Sudoeste 14 Sudoeste 0 1012.3 -0.4 71
2018-05-21 12:00:00 20.4 5 Sur 10 Sur 0 1012.2 -0.1 76
2018-05-21 11:00:00 20.2 4 Sur 9 Sudeste 0 1012.4 -0.5 73
2018-05-21 10:00:00 19 5 Sudeste 13 Este 0 1012.7 -0.3 73
2018-05-21 09:00:00 20 2 Este 9 Este 0 1012.3 -0.8 66
2018-05-21 08:00:00 17.5 0 Calma 7 Este 0 1012.9 0.2 77
2018-05-21 07:00:00 16.3 0 Calma 6 Este 0 1013 0.1 82
2018-05-21 06:00:00 16.5 0 Calma 6 Norte 0 1013.1 0.1 84
2018-05-21 05:00:00 16.9 0 Calma 6 Norte 0 1012.7 -0.7 86
2018-05-21 04:00:00 16.8 3 Norte 5 Norte 0 1012.9 -0.6 81
2018-05-21 03:00:00 16.8 2 Norte 4 Norte 0 1013 -0.6 81
2018-05-21 02:00:00 17.7 0 Calma 4 Nordeste 0 1013.4 -0.1 80
2018-05-21 01:00:00 17.8 0 Calma 9 Oeste 0 1013.5 0.3 81
2018-05-21 00:00:00 18.7 0 Calma 8 Noroeste 0 1013.6 0.6 81
2018-05-20 23:00:00 18.4 6 Oeste 10 Oeste 0 1013.5 0.6 81
2018-05-20 22:00:00 18.7 7 Oeste 12 Oeste 0 1013.2 0.4 82
2018-05-20 21:00:00 18.7 10 Oeste 18 Sudoeste 0 1013 0.8 80
2018-05-20 20:00:00 19.1 13 Oeste 18 Oeste 0 1012.9 0.4 77
2018-05-20 19:00:00 19.4 9 Sudoeste 15 Sudoeste 0 1012.8 -0.1 75
2018-05-20 18:00:00 19.8 9 Sudoeste 14 Sudoeste 0 1012.2 -1.9 72
2018-05-20 17:00:00 20.4 3 Sudoeste 9 Sur 0 1012.5 -0.8 71
2018-05-20 16:00:00 21.4 2 Sur 15 Sudoeste 0 1012.9 -1 70
2018-05-20 15:00:00 20.1 9 Sudoeste 16 Sudoeste 0 1014.1 -0.1 71
2018-05-20 14:00:00 22.7 5 Sur 15 Sudoeste 0 1013.3 -1.1 66
2018-05-20 13:00:00 21.8 5 Sudoeste 13 Sudoeste 0 1013.9 -0.8 71
2018-05-20 12:00:00 20.8 4 Sur 11 Sur 0 1014.2 -0.7 76
2018-05-20 11:00:00 20.1 4 Sudeste 8 Sudeste 0 1014.4 -0.9 73
2018-05-20 10:00:00 19.1 5 Sudeste 9 Sudeste 0 1014.7 -0.7 73
2018-05-20 09:00:00 18.6 5 Este 9 Este 0 1014.9 -0.4 66
2018-05-20 08:00:00 17.2 0 Calma 6 Nordeste 0 1015.3 0.2 75
2018-05-20 07:00:00 16.5 0 Calma 9 Nordeste 0 1015.4 -0.1 76
2018-05-20 06:00:00 16.1 2 Nordeste 7 Este 0 1015.3 -0.6 76
2018-05-20 05:00:00 16.6 0 Calma 5 Norte 0 1015.1 -1.3 77
2018-05-20 04:00:00 16.7 2 Norte 6 Norte 0 1015.5 -1 76
2018-05-20 03:00:00 16.6 3 Norte 5 Noroeste 0 1015.9 -0.7 78
2018-05-20 02:00:00 17 2 Norte 5 Norte 0 1016.4 0.1 77
2018-05-20 01:00:00 17 2 Norte 4 Norte 0 1016.5 1.2 76
2018-05-20 00:00:00 17.7 0 Calma 12 Oeste 0 1016.6 1.2 78
2018-05-19 23:00:00 18.2 9 Oeste 13 Oeste 0 1016.3 0.9 78
2018-05-19 22:00:00 18.3 6 Oeste 9 Oeste 0 1015.3 -0.2 81
2018-05-19 21:00:00 18.9 5 Noroeste 9 Sudoeste 0 1015.4 0.1 77
2018-05-19 20:00:00 19.1 5 Sudoeste 10 Sudoeste 0 1015.4 -0.2 76
2018-05-19 19:00:00 19.2 5 Sudoeste 10 Sudoeste 0 1015.5 0.3 75
2018-05-19 18:00:00 19.9 2 Sur 7 Sur 0 1015.3 -0.2 71
2018-05-19 17:00:00 19.4 4 Sudeste 8 Sur 0 1015.6 0 71
2018-05-19 16:00:00 21.7 3 Sur 9 Sudoeste 0 1015.2 -0.8 65
2018-05-19 15:00:00 20.5 4 Sur 10 Sur 0 1015.5 -0.8 67
2018-05-19 14:00:00 22.7 4 Sur 12 Sudoeste 0 1015.6 -0.3 60
2018-05-19 13:00:00 21.3 6 Sudoeste 12 Sudoeste 0 1016 -0.3 63
2018-05-19 12:00:00 21.1 3 Sur 10 Sur 0 1016.3 0.5 63
2018-05-19 11:00:00 22.3 2 Sur 9 Sur 0 1015.9 -0.2 61
2018-05-19 10:00:00 19.3 4 Sudeste 6 Sur 0 1016.3 0.3 66
2018-05-19 09:00:00 19.4 2 Sudeste 6 Sudeste 0 1015.8 0.2 64
2018-05-19 08:00:00 17.1 0 Calma 6 Norte 0 1016.1 0.3 73
2018-05-19 07:00:00 15.9 2 Norte 5 Norte 0 1016 0 75
2018-05-19 06:00:00 16.8 0 Calma 9 Norte 0 1015.6 -1 70
2018-05-19 05:00:00 16.8 2 Norte 9 Este 0 1015.8 -1.3 72
2018-05-19 04:00:00 16.5 2 Este 7 Nordeste 0 1016 -1 77
2018-05-19 03:00:00 17 0 Calma 6 Este 0 1016.6 -0.3 77
2018-05-19 02:00:00 16.8 2 Norte 9 Nordeste 0 1017.1 0.6 77
2018-05-19 01:00:00 17.5 0 Calma 5 Norte 0 1017 1.3 76
2018-05-19 00:00:00 17.8 2 Norte 7 Norte 0 1016.9 1.4 76
2018-05-18 23:00:00 17.8 2 Nordeste 8 Nordeste 0 1016.5 1.8 75
2018-05-18 22:00:00 18.5 3 Nordeste 8 Este 0 1015.7 0.9 72
2018-05-18 21:00:00 18.6 2 Sur 5 Sudoeste 0 1015.5 0.2 73
2018-05-18 20:00:00 20.3 2 Sur 7 Sur 0 1014.7 -0.3 67
2018-05-18 19:00:00 20.4 3 Sudoeste 8 Oeste 0 1014.8 -1.5 66
2018-05-18 18:00:00 20.2 3 Sur 11 Noroeste 0 1015.3 0.1 68
2018-05-18 17:00:00 20.2 5 Oeste 10 Sudoeste 0 1015 -1.2 66
2018-05-18 16:00:00 19.3 7 Sudoeste 15 Sudoeste 0 1016.3 0.3 71
2018-05-18 15:00:00 21.7 4 Sudoeste 12 Sur 0 1015.2 -0.6 63
2018-05-18 14:00:00 20.6 5 Sudoeste 11 Sudoeste 0 1016.2 0.1 67
2018-05-18 13:00:00 21.9 4 Sur 11 Sur 0 1016 -0.1 64
2018-05-18 12:00:00 21.7 3 Sur 11 Sudoeste 0 1015.8 0.2 65
2018-05-18 11:00:00 20 5 Sudoeste 10 Sur 0 1016.1 -0.2 70
2018-05-18 10:00:00 19.1 4 Sudoeste 7 Sudoeste 0 1016.1 -0.4 72
2018-05-18 09:00:00 18.7 0 Calma 3 Sur 0 1015.6 -0.8 73
2018-05-18 08:00:00 16.4 0 Calma 5 Norte 0 1016.3 0.1 83
2018-05-18 07:00:00 15.2 0 Calma 6 Norte 0 1016.5 0.5 83
2018-05-18 06:00:00 15.4 0 Calma 5 Noroeste 0 1016.4 0.2 83
2018-05-18 05:00:00 15.3 2 Norte 6 Oeste 0 1016.2 -0.5 82
2018-05-18 04:00:00 15.9 2 Norte 6 Noroeste 0 1016 -1.1 81
2018-05-18 03:00:00 15.9 3 Norte 5 Norte 0 1016.2 -1 80
2018-05-18 02:00:00 16 2 Norte 6 Norte 0 1016.7 0 78
2018-05-18 01:00:00 16.8 4 Oeste 9 Oeste 0 1017.1 1.3 78
2018-05-18 00:00:00 17 0 Calma 6 Este 0 1017.2 1.6 76
2018-05-17 23:00:00 17.7 3 Este 11 Nordeste 0 1016.7 1.7 75
2018-05-17 22:00:00 17.7 2 Nordeste 12 Este 0 1015.8 1.7 76
2018-05-17 21:00:00 18 6 Nordeste 22 Nordeste 0 1015.6 2 76
2018-05-17 20:00:00 18 13 Nordeste 25 Nordeste 0 1015 1.9 80
2018-05-17 19:00:00 18.9 12 Sudeste 22 Sudeste 0 1014.1 0.5 76
2018-05-17 18:00:00 20.2 5 Sudoeste 20 Oeste 0 1013.6 0.2 66
2018-05-17 17:00:00 19.6 13 Oeste 22 Oeste 0 1013.1 -0.3 63
2018-05-17 16:00:00 18.7 13 Sudoeste 27 Oeste 0 1013.6 -0.4 70
2018-05-17 15:00:00 17.9 14 Oeste 25 Oeste 0 1013.4 -0.8 72
2018-05-17 14:00:00 17.7 14 Oeste 22 Oeste 0 1013.4 -0.4 76
2018-05-17 13:00:00 17 13 Oeste 19 Noroeste 0 1014 1.1 81
2018-05-17 12:00:00 17 6 Oeste 17 Oeste 0 1014.2 1.9 77
2018-05-17 11:00:00 16.7 9 Oeste 22 Noroeste 0.1 1013.8 1.6 84
2018-05-17 10:00:00 18.4 3 Norte 9 Oeste 0 1012.9 1.2 76
2018-05-17 09:00:00 17.8 8 Oeste 11 Oeste 0 1012.3 1 75
2018-05-17 08:00:00 18.1 2 Noroeste 12 Oeste 0 1012.2 0.9 61
2018-05-17 07:00:00 17.8 7 Oeste 15 Oeste 0 1011.7 -0.1 70
2018-05-17 06:00:00 17.2 9 Oeste 19 Oeste 0 1011.3 -0.5 77
2018-05-17 05:00:00 19.3 3 Norte 24 Oeste 0 1011.3 -1.4 50
2018-05-17 04:00:00 18.7 9 Oeste 15 Oeste 0 1011.8 -1.3 58
2018-05-17 03:00:00 20.5 4 Oeste 13 Este 0 1011.8 -1.3 43
2018-05-17 02:00:00 19.7 2 Nordeste 12 Noroeste 0 1012.7 0.8 49
2018-05-17 01:00:00 19.2 5 Noroeste 26 Oeste 0 1013.1 2.5 53
2018-05-17 00:00:00 19.4 13 Oeste 28 Noroeste 0 1013.1 3.1 53
2018-05-16 23:00:00 20 14 Oeste 23 Oeste 0 1011.9 2.2 53
2018-05-16 22:00:00 20.4 12 Oeste 18 Sudeste 0 1010.6 0.4 44
2018-05-16 21:00:00 21.3 11 Este 41 Este 0 1010 0.2 38
2018-05-16 20:00:00 21.9 13 Este 39 Sudeste 0 1009.7 -0.2 36
2018-05-16 19:00:00 22.3 20 Este 43 Sudeste 0 1010.2 -0.8 38
2018-05-16 18:00:00 22.9 17 Este 48 Sudeste 0 1009.8 -1.9 40
2018-05-16 17:00:00 23.4 22 Este 43 Este 0 1009.9 -2.7 34
2018-05-16 16:00:00 21 24 Sudeste 41 Sudeste 0 1011 -2.1 52
2018-05-16 15:00:00 20.9 23 Sudeste 38 Sudeste 0 1011.7 -2.1 55
2018-05-16 14:00:00 20 12 Sudeste 24 Sudeste 0 1012.6 -1.3 60
2018-05-16 13:00:00 20.5 11 Sudeste 28 Sudeste 0 1013.1 -0.8 55
2018-05-16 12:00:00 19.4 14 Sudeste 26 Sudeste 0 1013.8 -0.3 56
2018-05-16 11:00:00 19.7 5 Sudeste 12 Sur 0 1013.9 -1.1 55
2018-05-16 10:00:00 20.7 2 Sur 6 Sur 0 1013.9 -1.4 56
2018-05-16 09:00:00 19.7 2 Sudoeste 8 Oeste 0 1014.1 -1.2 61
2018-05-16 08:00:00 16.9 5 Oeste 10 Oeste 0 1015 -0.3 66
2018-05-16 07:00:00 16.4 3 Noroeste 8 Noroeste 0 1015.3 -0.2 69
2018-05-16 06:00:00 15.8 0 Calma 5 Norte 0 1015.3 -0.3 72
2018-05-16 05:00:00 15.7 3 Noroeste 6 Noroeste 0 1015.3 -0.7 72
2018-05-16 04:00:00 15.8 0 Calma 0 Calma 0 1015.5 -0.9 72
2018-05-16 03:00:00 15.9 0 Calma 5 Norte 0 1015.6 -0.6 72
2018-05-16 02:00:00 16.6 3 Norte 9 Nordeste 0 1016 -0.1 70
2018-05-16 01:00:00 17.6 2 Nordeste 6 Este 0 1016.4 0.8 65
2018-05-16 00:00:00 18.3 3 Nordeste 13 Nordeste 0 1016.2 0.8 66
2018-05-15 23:00:00 18 5 Nordeste 11 Nordeste 0 1016.1 1.9 72
2018-05-15 22:00:00 18.4 5 Nordeste 10 Nordeste 0 1015.6 1.8 72
2018-05-15 21:00:00 18.6 2 Nordeste 14 Este 0 1015.4 1.5 73
2018-05-15 20:00:00 19.4 3 Sudeste 13 Sudeste 0 1014.2 0.4 70
2018-05-15 19:00:00 19.7 5 Sudeste 20 Nordeste 0 1013.8 -1 61
2018-05-15 18:00:00 20.8 2 Oeste 8 Sudeste 0 1013.9 -1.8 63
2018-05-15 17:00:00 20.2 4 Sudeste 12 Sudeste 0 1013.8 -2.9 66
2018-05-15 16:00:00 19.8 8 Sudeste 18 Este 0 1014.8 -1.9 62
2018-05-15 15:00:00 18.8 10 Sudeste 23 Sudeste 0 1015.7 -1.1 75
2018-05-15 14:00:00 18.7 13 Sudeste 22 Sudeste 0 1016.7 0 75
2018-05-15 13:00:00 18.8 10 Sudeste 19 Sudeste 0 1016.7 0.3 66
2018-05-15 12:00:00 19.3 8 Sudeste 18 Sudeste 0 1016.8 1.1 62
2018-05-15 11:00:00 20.3 9 Sudeste 18 Sudeste 0 1016.7 0.2 44
2018-05-15 10:00:00 19.2 4 Sudeste 17 Sudeste 0 1016.4 -0.2 50
2018-05-15 09:00:00 20.4 4 Nordeste 15 Norte 0 1015.7 -0.5 39
2018-05-15 08:00:00 17.7 3 Nordeste 10 Este 0 1016.5 0.3 42
2018-05-15 07:00:00 15.8 5 Nordeste 10 Nordeste 0 1016.6 0.1 44
2018-05-15 06:00:00 16.4 2 Norte 7 Norte 0 1016.2 -0.6 39
2018-05-15 05:00:00 16.8 4 Norte 7 Norte 0 1016.2 -0.6 38
2018-05-15 04:00:00 16.7 3 Norte 9 Noroeste 0 1016.5 -0.6 38
2018-05-15 03:00:00 16.7 4 Norte 10 Noroeste 0 1016.8 -0.4 40
2018-05-15 02:00:00 18.1 3 Norte 7 Norte 0 1016.8 -0.2 34
2018-05-15 01:00:00 17.7 0 Calma 14 Este 0 1017.1 0.6 35
2018-05-15 00:00:00 18.3 0 Calma 6 Este 0 1017.2 1 36
2018-05-14 23:00:00 18.5 0 Calma 4 Noroeste 0 1017 2.2 34
2018-05-14 22:00:00 18.6 0 Calma 6 Norte 0 1016.5 1.5 40
2018-05-14 21:00:00 18.9 0 Calma 5 Sur 0 1016.2 1.7 52
2018-05-14 20:00:00 21.2 2 Sudoeste 12 Sudoeste 0 1014.8 -0.4 46
2018-05-14 19:00:00 19.8 8 Sudoeste 13 Sudoeste 0 1015 -0.1 51
2018-05-14 18:00:00 21 6 Sudoeste 15 Sudoeste 0 1014.5 -1.9 50
2018-05-14 17:00:00 20.5 9 Sudoeste 15 Sudoeste 0 1015.2 -2 51
2018-05-14 16:00:00 22.1 4 Sudoeste 13 Sudoeste 0 1015.1 -2.2 48
2018-05-14 15:00:00 19.9 6 Sudoeste 12 Sudoeste 0 1016.4 -1.6 52
2018-05-14 14:00:00 20.1 6 Sudoeste 12 Sudoeste 0 1017.2 -1.1 55
2018-05-14 13:00:00 18.8 4 Sudeste 10 Sur 0 1017.3 -1.1 57
2018-05-14 12:00:00 18.3 5 Sudeste 9 Sur 0 1018 0.2 62
2018-05-14 11:00:00 17.7 5 Sudeste 9 Sudeste 0 1018.3 -0.3 65
2018-05-14 10:00:00 17.6 5 Sudeste 8 Sudeste 0 1018.4 -0.6 52
2018-05-14 09:00:00 19.2 0 Calma 4 Norte 0 1017.8 -1.2 45
2018-05-14 08:00:00 16.1 0 Calma 9 Norte 0 1018.6 -0.7 53
2018-05-14 07:00:00 14.2 4 Norte 6 Norte 0 1019 -0.5 56
2018-05-14 06:00:00 14.5 2 Norte 5 Norte 0 1019 -0.9 55
2018-05-14 05:00:00 15.1 3 Norte 7 Norte 0 1019.3 -0.8 53
2018-05-14 04:00:00 15 2 Norte 6 Noroeste 0 1019.5 -1 54
2018-05-14 03:00:00 15.6 3 Norte 9 Nordeste 0 1019.9 -0.5 51
2018-05-14 02:00:00 17 5 Norte 11 Norte 0 1020.1 0.2 50
2018-05-14 01:00:00 16.2 3 Norte 5 Norte 0 1020.5 0.9 51
2018-05-11 20:00:00 18.3 15 Oeste 24 Oeste 0 1016.4 -1.3 86
2018-05-11 19:00:00 18.6 16 Oeste 23 Oeste 0 1016.5 -1.9 85
2018-05-11 18:00:00 19.3 13 Oeste 22 Sudoeste 0 1016.9 -1.7 81
2018-05-11 17:00:00 18.8 17 Oeste 22 Sudoeste 0 1017.7 -0.8 82
2018-05-11 16:00:00 19.3 15 Oeste 20 Oeste 0 1018.4 -0.1 79
2018-05-11 15:00:00 19.6 11 Oeste 18 Oeste 0 1018.6 0.2 73
2018-05-11 14:00:00 20.6 9 Sudoeste 15 Sudoeste 0 1018.5 -0.7 70
2018-05-11 13:00:00 21.1 5 Sudoeste 10 Sudoeste 0 1018.5 -0.6 66
2018-05-11 12:00:00 21.2 0 Calma 4 Sudoeste 0 1018.4 0.1 71
2018-05-11 11:00:00 19.2 0 Calma 6 Sudeste 0 1019.2 0.7 77
2018-05-11 10:00:00 18.2 5 Sudeste 8 Sudeste 0 1019.1 1.1 77
2018-05-11 09:00:00 18.9 0 Calma 3 Sudeste 0 1018.3 0.4 78
2018-05-11 08:00:00 16.9 0 Calma 4 Nordeste 0 1018.5 0.8 89
2018-05-11 07:00:00 15.9 0 Calma 3 Noroeste 0 1018 0.1 91
2018-05-11 06:00:00 16.1 0 Calma 3 Sudeste 0 1017.9 -0.3 90
2018-05-11 05:00:00 16.6 0 Calma 7 Oeste 0 1017.7 -0.3 89
2018-05-11 04:00:00 16.6 0 Calma 4 Norte 0 1017.9 -0.7 89
2018-05-11 03:00:00 16.9 0 Calma 5 Sudeste 0 1018.2 0.1 88
2018-05-11 02:00:00 17.4 0 Calma 9 Este 0 1018 0.3 88
2018-05-11 01:00:00 16.9 3 Este 9 Este 0 1018.6 1.7 90
2018-05-11 00:00:00 16.9 0 Calma 5 Nordeste 0 1018.1 2.3 89
2018-05-10 23:00:00 17.5 2 Sudeste 6 Nordeste 0 1017.7 3 84
2018-05-10 22:00:00 17.6 0 Calma 11 Sudeste 0 1016.9 2.2 82
2018-05-10 21:00:00 19.7 0 Calma 12 Oeste 0 1015.8 1.4 75
2018-05-10 20:00:00 18.7 4 Oeste 22 Sudoeste 0 1014.7 0.6 81
2018-05-10 19:00:00 17.9 15 Oeste 26 Sudoeste 0 1014.7 0.6 83
2018-05-10 18:00:00 17.8 17 Oeste 27 Sudoeste 0 1014.4 -0.1 83
2018-05-10 17:00:00 18.1 17 Oeste 26 Oeste 0 1014.1 -0.4 82
2018-05-10 16:00:00 17.9 17 Oeste 27 Oeste 0 1014.1 0.3 83
2018-05-10 15:00:00 17.8 17 Oeste 24 Sudoeste 0 1014.5 1.1 84
2018-05-10 14:00:00 17.8 15 Oeste 22 Sudoeste 0 1014.5 1.5 84
2018-05-10 13:00:00 18.8 12 Sudoeste 17 Sudoeste 0 1013.8 1.4 78
2018-05-10 12:00:00 19 8 Sudoeste 15 Oeste 0 1013.4 1.1 77
2018-05-10 11:00:00 18.3 8 Oeste 19 Oeste 0 1013 1.3 83
2018-05-10 10:00:00 18.6 7 Sudoeste 16 Oeste 0 1012.4 1.1 81
2018-05-10 09:00:00 17.6 7 Oeste 12 Oeste 0 1012.3 1.5 84
2018-05-10 08:00:00 16.8 6 Oeste 12 Noroeste 0 1011.7 1 91
2018-05-10 07:00:00 16.3 0 Calma 16 Noroeste 0 1011.3 0.7 91
2018-05-10 06:00:00 16.8 8 Oeste 26 Oeste 0 1010.8 0.2 91
2018-05-10 05:00:00 17 15 Oeste 27 Oeste 0 1010.7 -0.1 90
2018-05-10 04:00:00 17.2 13 Oeste 22 Oeste 0 1010.6 -0.3 91
2018-05-10 03:00:00 17.5 0 Calma 4 Este 0 1010.6 0.1 91
2018-05-10 02:00:00 17.9 0 Calma 5 Sur 0 1010.8 0.3 91
2018-05-10 01:00:00 18.1 0 Calma 12 Sudeste 0 1010.9 1.1 88
2018-05-10 00:00:00 18.5 4 Este 15 Este 0 1010.5 0.8 88
2018-05-09 23:00:00 18.3 4 Oeste 14 Sudoeste 0 1010.5 0.9 91
2018-05-09 22:00:00 18.1 9 Oeste 19 Oeste 0 1009.8 -0.3 92
2018-05-09 21:00:00 18.2 11 Oeste 25 Oeste 0 1009.7 0.3 88
2018-05-09 20:00:00 18.6 11 Oeste 25 Oeste 0 1009.6 0.4 86
2018-05-09 19:00:00 19.1 15 Oeste 33 Oeste 0 1010.1 -0.3 83
2018-05-09 18:00:00 18.9 22 Oeste 36 Oeste 0 1009.4 -0.9 83
2018-05-09 17:00:00 19.7 21 Oeste 33 Oeste 0 1009.2 -1.6 78
2018-05-09 16:00:00 19.5 17 Oeste 23 Oeste 0 1010.4 -0.5 81
2018-05-09 15:00:00 20.7 10 Sudoeste 18 Sudoeste 0 1010.3 -1.2 76
2018-05-09 14:00:00 21.1 8 Sudoeste 17 Sudoeste 0 1010.8 -0.4 77
2018-05-09 13:00:00 20.7 8 Sudoeste 13 Sudoeste 0 1010.9 -0.3 75
2018-05-09 12:00:00 19.5 8 Sudoeste 13 Sudoeste 0 1011.5 0.2 84
2018-05-09 11:00:00 18.9 9 Sudoeste 14 Sudoeste 0 1011.2 0 87
2018-05-09 10:00:00 19 6 Sudoeste 12 Sudoeste 0 1011.2 0.6 87
2018-05-09 09:00:00 17.9 8 Oeste 13 Oeste 0 1011.3 0.9 89
2018-05-09 08:00:00 17.6 6 Oeste 11 Oeste 0 1011.2 0.5 92
2018-05-09 07:00:00 17.3 0 Calma 4 Norte 0 1010.6 -0.2 92
2018-05-09 06:00:00 17.6 0 Calma 5 Noroeste 0 1010.4 -0.4 94
2018-05-09 05:00:00 17.4 0 Calma 10 Oeste 0 1010.7 -0.9 95
2018-05-09 04:00:00 17.5 4 Oeste 10 Oeste 0 1010.8 -1 94
2018-05-09 03:00:00 17.4 0 Calma 7 Este 0 1010.8 -1 93
2018-05-09 02:00:00 17.5 0 Calma 6 Sudeste 0.1 1011.6 -0.2 95
2018-05-09 01:00:00 17.9 0 Calma 5 Sudoeste 0 1011.8 0.5 94
2018-05-09 00:00:00 17.8 0 Calma 9 Nordeste 0.3 1011.8 1.1 93
2018-05-08 23:00:00 18.2 5 Sudeste 14 Este 0 1011.8 1.5 91
2018-05-08 22:00:00 17.8 4 Este 10 Este 0 1011.3 1.3 92
2018-05-08 21:00:00 18.1 2 Sudoeste 13 Sudoeste 0 1010.7 -0.1 90
2018-05-08 20:00:00 18.4 8 Sudoeste 15 Sudoeste 0 1010.3 -0.7 88
2018-05-08 19:00:00 19.6 0 Calma 6 Sur 0 1010 -0.3 87
2018-05-08 18:00:00 18.6 0 Calma 18 Oeste 0 1010.8 -0.2 88
2018-05-08 17:00:00 18.4 10 Sudoeste 31 Oeste 0 1011 -0.9 84
2018-05-08 16:00:00 18.7 17 Oeste 27 Oeste 0 1010.3 -2.2 83
2018-05-08 15:00:00 18.6 15 Sudoeste 28 Sudoeste 0 1011 -1.9 86
2018-05-08 14:00:00 18.6 15 Sudoeste 31 Oeste 0 1011.9 -0.6 84
2018-05-08 13:00:00 18.2 17 Oeste 31 Sudoeste 0 1012.5 -0.2 83
2018-05-08 12:00:00 18.2 14 Sudoeste 24 Sudoeste 0 1012.9 0.1 83
2018-05-08 11:00:00 19.1 5 Sudeste 10 Sudeste 0 1012.5 -0.9 79
2018-05-08 10:00:00 18.9 5 Sur 11 Sur 0 1012.7 -0.6 79
2018-05-08 09:00:00 18.7 0 Calma 4 Sudeste 0 1012.8 -0.3 76
2018-05-08 08:00:00 17.2 0 Calma 6 Oeste 0 1013.4 0.1 83
2018-05-08 07:00:00 16.9 0 Calma 9 Oeste 0 1013.3 -0.4 82
2018-05-08 06:00:00 17 0 Calma 4 Norte 0 1013.1 -1.1 80
2018-05-08 05:00:00 16.3 0 Calma 2 Norte 0 1013.3 -1.6 84
2018-05-08 04:00:00 17.2 0 Calma 5 Oeste 0 1013.7 -1.3 84
2018-05-08 03:00:00 17.3 0 Calma 6 Sudeste 0 1014.2 -1.1 80
2018-05-08 02:00:00 18.6 0 Calma 7 Este 0 1014.9 0.2 73
2018-05-08 01:00:00 18.2 0 Calma 11 Oeste 0 1015 0.9 75
2018-05-08 00:00:00 17.5 0 Calma 10 Oeste 0 1015.3 1.3 84
2018-05-07 23:00:00 17.9 4 Oeste 17 Oeste 0 1014.7 0.9 83
2018-05-07 22:00:00 18.3 9 Oeste 17 Oeste 0 1014.1 0.8 80
2018-05-07 21:00:00 18.8 9 Oeste 21 Oeste 0 1014 0.6 71
2018-05-07 20:00:00 18.3 14 Oeste 22 Oeste 0 1013.8 0.2 73
2018-05-07 19:00:00 19.2 10 Sudoeste 22 Sudoeste 0 1013.3 -0.3 74
2018-05-07 18:00:00 19.8 11 Sudoeste 22 Sudoeste 0 1013.4 1.3 70
2018-05-07 17:00:00 20 11 Sudoeste 24 Sudoeste 0 1013.6 0.4 68
2018-05-07 16:00:00 19.7 13 Sudoeste 23 Sudoeste 0 1013.6 -0.2 71
2018-05-07 15:00:00 21.5 8 Sudoeste 16 Sudoeste 0 1012.1 -3.2 61
2018-05-07 14:00:00 20.5 5 Sudeste 13 Sur 0 1013.2 -2.5 66
2018-05-07 13:00:00 22.4 0 Calma 14 Sudoeste 0 1013.8 -2 57
2018-05-07 12:00:00 19.5 7 Sudoeste 20 Oeste 0 1015.3 -0.4 73
2018-05-07 11:00:00 18.6 11 Oeste 23 Sudoeste 0 1015.7 0.2 78
2018-05-07 10:00:00 18.1 18 Oeste 26 Oeste 0 1015.8 1.6 77
2018-05-07 09:00:00 17.7 18 Oeste 31 Oeste 0 1015.7 2.7 77
2018-05-07 08:00:00 17.4 17 Oeste 42 Oeste 0 1015.5 2.5 80
2018-05-07 07:00:00 17.8 22 Oeste 33 Oeste 0 1014.2 0.1 72
2018-05-07 06:00:00 17.1 5 Oeste 13 Oeste 0 1013 -1.5 69
2018-05-07 05:00:00 17 0 Calma 9 Este 0 1013 -2.2 72
2018-05-07 04:00:00 17.1 3 Oeste 10 Oeste 0 1014.1 -2.5 76
2018-05-07 03:00:00 17.7 0 Calma 15 Este 0 1014.5 -1.8 69
2018-05-07 02:00:00 17.6 0 Calma 8 Este 0 1015.2 -0.2 71
2018-05-07 01:00:00 17.6 0 Calma 14 Noroeste 0 1016.6 2.4 76
2018-05-07 00:00:00 18.1 6 Oeste 15 Oeste 0 1016.3 3.3 73
2018-05-06 23:00:00 18.8 8 Oeste 22 Sudoeste 0 1015.4 3.1 65
2018-05-06 22:00:00 20 0 Calma 24 Este 0 1014.2 0.7 56
2018-05-06 21:00:00 20.7 13 Este 31 Este 0 1013 0 51
2018-05-06 20:00:00 21.7 12 Este 30 Este 0 1012.3 -1.3 53
2018-05-06 19:00:00 19.4 13 Sudeste 27 Sudeste 0 1013.5 -1.5 72
2018-05-06 18:00:00 19.9 13 Sudeste 28 Sudeste 0 1013 -2.6 73
2018-05-06 17:00:00 19 12 Sudeste 21 Sudeste 0 1013.6 -2.6 77
2018-05-06 16:00:00 18.6 12 Sudeste 31 Este 0 1015 -1.5 78
2018-05-06 15:00:00 18.5 16 Sudeste 31 Este 0 1015.6 -0.7 77
2018-05-06 14:00:00 18.2 17 Sudeste 30 Sudeste 0 1016.2 -0.1 76
2018-05-06 13:00:00 18 18 Sudeste 28 Sudeste 0 1016.5 0.1 72
2018-05-06 12:00:00 18.6 11 Sudeste 22 Sudeste 0 1016.3 -0.3 70
2018-05-06 11:00:00 18.6 8 Sudeste 19 Este 0 1016.3 -0.5 65
2018-05-06 10:00:00 19.3 11 Este 23 Este 0 1016.4 -0.3 53
2018-05-06 09:00:00 18.1 4 Este 9 Este 0 1016.6 0.1 65
2018-05-06 08:00:00 15.4 5 Nordeste 9 Nordeste 0 1016.8 0.1 76
2018-05-06 07:00:00 15 0 Calma 7 Este 0 1016.7 -0.3 77
2018-05-06 06:00:00 15.5 0 Calma 10 Este 0 1016.5 -0.6 77
2018-05-06 05:00:00 15.7 6 Este 12 Nordeste 0 1016.7 -0.4 77
2018-05-06 04:00:00 16.1 4 Este 14 Este 0 1017 0 77
2018-05-06 03:00:00 16.2 0 Calma 10 Este 0 1017.1 -0.1 77
2018-05-06 02:00:00 17.1 5 Este 13 Este 0 1017.1 -0.1 75
2018-05-06 01:00:00 17.6 3 Este 12 Este 0 1017 0.4 70
2018-05-06 00:00:00 17.9 4 Este 17 Este 0 1017.2 1.4 71
2018-05-05 23:00:00 17.7 3 Este 7 Nordeste 0 1017.2 2 71
2018-05-05 22:00:00 17.2 0 Calma 6 Noroeste 0 1016.6 2.9 77
2018-05-05 21:00:00 18.2 0 Calma 8 Sudoeste 0 1015.8 0.9 75
2018-05-05 20:00:00 19 2 Sudoeste 9 Sudoeste 0 1015.2 1.2 70
2018-05-05 19:00:00 20.7 2 Sudoeste 10 Sudoeste 0 1013.7 -0.6 65
2018-05-05 18:00:00 20.1 5 Sudoeste 10 Sudoeste 0 1014.9 -0.1 63
2018-05-05 17:00:00 21.4 3 Sudoeste 11 Sudoeste 0 1014 -1.5 61
2018-05-05 16:00:00 21.2 4 Sudoeste 12 Sudoeste 0 1014.3 -2.5 61
2018-05-05 15:00:00 20.1 4 Sudoeste 11 Sudoeste 0 1015 -0.5 68
2018-05-05 14:00:00 19.9 4 Sudoeste 9 Sudoeste 0 1015.5 -1.7 68
2018-05-05 13:00:00 18.1 6 Sudoeste 11 Sudoeste 0 1016.8 0.3 75
2018-05-05 12:00:00 21 0 Calma 7 Oeste 0 1015.5 -0.8 62
2018-05-05 11:00:00 16.9 4 Oeste 6 Oeste 0 1017.2 1.4 76
2018-05-05 10:00:00 17.1 0 Calma 3 Noroeste 0 1016.5 1.3 76
2018-05-05 09:00:00 16 0 Calma 6 Este 0 1016.3 1.1 77
2018-05-05 08:00:00 15.4 0 Calma 11 Norte 0 1015.8 0.3 76
2018-05-05 07:00:00 14.5 2 Nordeste 9 Norte 0 1015.2 -0.6 82
2018-05-05 06:00:00 14.8 0 Calma 7 Nordeste 0 1015.2 -1 80
2018-05-05 05:00:00 15.4 0 Calma 6 Este 0 1015.5 -0.9 77
2018-05-05 04:00:00 15.6 4 Nordeste 10 Este 0 1015.8 -0.4 77
2018-05-05 03:00:00 16 4 Nordeste 11 Este 0 1016.2 0.4 76
2018-05-05 02:00:00 16.7 2 Nordeste 6 Norte 0 1016.4 1 76
2018-05-05 01:00:00 16.6 2 Nordeste 8 Este 0 1016.2 1.5 75
2018-05-05 00:00:00 16.6 5 Este 12 Este 0 1015.8 1.5 75
2018-05-04 23:00:00 16.8 3 Este 8 Este 0 1015.4 2.9 76
2018-05-04 22:00:00 17.1 3 Este 6 Este 0 1014.7 2.7 76
2018-05-04 21:00:00 17.4 0 Calma 9 Sur 0 1014.3 3.1 76
2018-05-04 20:00:00 18.4 3 Sudeste 9 Este 0 1012.5 2.2 73
2018-05-04 19:00:00 18.8 5 Sudeste 13 Sudeste 0 1012 1.2 73
2018-05-04 18:00:00 19.8 5 Sur 9 Sudeste 0 1011.2 -0.6 60
2018-05-04 17:00:00 20.6 2 Sur 9 Sudeste 0 1010.3 -1.8 66
2018-05-04 16:00:00 20.6 4 Sudoeste 13 Sudeste 0 1010.8 -2.1 66
2018-05-04 15:00:00 18.1 8 Sudeste 12 Sudeste 0 1011.8 0.3 68
2018-05-04 14:00:00 17.3 0 Calma 19 Sudeste 0 1012.1 1 81
2018-05-04 13:00:00 17.2 9 Sudeste 14 Este 0 1012.9 1.3 75
2018-05-04 12:00:00 19.4 0 Calma 15 Sudeste 0 1011.5 0.3 71
2018-05-04 11:00:00 18 8 Sudeste 14 Sudeste 0.1 1011.1 0 75
2018-05-04 10:00:00 17.3 5 Este 13 Este 0 1011.6 0.9 77
2018-05-04 09:00:00 16.8 2 Este 8 Nordeste 0 1011.2 1 79
2018-05-04 08:00:00 16.1 3 Nordeste 13 Este 0 1011.1 0.7 86
2018-05-04 07:00:00 16.1 4 Este 10 Este 0 1010.7 0.3 86
2018-05-04 06:00:00 15.7 0 Calma 6 Este 0 1010.2 -0.7 89
2018-05-04 05:00:00 16 3 Este 7 Nordeste 0 1010.4 -1.1 88
2018-05-04 04:00:00 15.8 3 Nordeste 11 Nordeste 0 1010.4 -1.3 87
2018-05-04 03:00:00 16.1 5 Este 11 Este 0 1010.9 -1.1 86
2018-05-04 02:00:00 16.3 3 Nordeste 6 Este 0 1011.5 -0.5 81
2018-05-04 01:00:00 16.3 3 Oeste 9 Noroeste 0 1011.7 0.3 82
2018-05-04 00:00:00 16.6 0 Calma 6 Norte 0 1012 0.9 71
2018-05-03 23:00:00 17.1 3 Nordeste 7 Este 0 1012 1.1 67
2018-05-03 22:00:00 17.7 0 Calma 16 Oeste 0 1011.4 0.8 64
2018-05-03 21:00:00 17.4 11 Oeste 24 Oeste 0 1011.1 0.4 65
2018-05-03 20:00:00 16.7 13 Oeste 24 Oeste 0 1010.9 -0.1 72
2018-05-03 19:00:00 17.3 15 Oeste 29 Oeste 0 1010.6 -1 73
2018-05-03 18:00:00 17.2 21 Oeste 30 Oeste 0 1010.7 -1.5 66
2018-05-03 17:00:00 17.3 17 Oeste 28 Oeste 0 1011 -2.2 73
2018-05-03 16:00:00 17.5 14 Oeste 26 Oeste 0 1011.6 -2 74
2018-05-03 15:00:00 17.8 12 Sudoeste 22 Sudoeste 0 1012.2 -1.9 76
2018-05-03 14:00:00 18.6 10 Sudoeste 18 Sudoeste 0 1013.2 -0.7 73
2018-05-03 13:00:00 18.1 8 Sudoeste 16 Sudoeste 0 1013.6 -0.1 71
2018-05-03 12:00:00 17.3 10 Sudoeste 17 Oeste 0 1014.1 0.8 66
2018-05-03 11:00:00 16.5 12 Oeste 18 Oeste 0 1013.9 -0.4 74
2018-05-03 10:00:00 16.7 10 Oeste 15 Oeste 0 1013.7 -0.5 54
2018-05-03 09:00:00 18.7 3 Sudoeste 7 Sudoeste 0 1013.3 -0.9 48
2018-05-03 08:00:00 14.9 0 Calma 6 Nordeste 0 1014.3 0 59
2018-05-03 07:00:00 13.9 3 Norte 6 Norte 0 1014.2 -0.6 62
2018-05-03 06:00:00 14.4 0 Calma 6 Norte 0 1014.2 -0.7 62
2018-05-03 05:00:00 14.6 0 Calma 6 Norte 0 1014.3 -1.1 62
2018-05-03 04:00:00 14.1 0 Calma 15 Este 0 1014.8 -0.8 61
2018-05-03 03:00:00 15.2 0 Calma 8 Oeste 0 1014.9 -0.8 67
2018-05-03 02:00:00 15.6 2 Norte 10 Este 0 1015.4 -0.5 62
2018-05-03 01:00:00 15.3 0 Calma -- -- 0 1015.6 0.1 78
2018-05-03 00:00:00 15.6 0 Calma 12 Oeste 0 1015.7 0.7 77
2018-05-02 23:00:00 15.7 8 Oeste 18 Oeste 0 1015.9 1 81
2018-05-02 22:00:00 16.4 12 Oeste 26 Oeste 0 1015.5 0.5 77
2018-05-02 21:00:00 16.4 19 Oeste 33 Oeste 0 1015 -0.2 71
2018-05-02 20:00:00 16.8 20 Oeste 31 Sudoeste 0 1014.9 -1.2 65
2018-05-02 19:00:00 16.7 13 Sudoeste 23 Sudoeste 0 1015 -1.1 68
2018-05-02 18:00:00 17 15 Oeste 24 Sudoeste 0 1015.2 -0.5 67
2018-05-02 17:00:00 16.6 13 Oeste 22 Sudoeste 0 1016.1 -0.3 66
2018-05-02 16:00:00 16.7 15 Oeste 24 Sudoeste 0 1016.1 -0.2 63
2018-05-02 15:00:00 16.8 13 Sudoeste 22 Sudoeste 0 1015.7 -1.2 61
2018-05-02 14:00:00 16.6 12 Sudoeste 22 Sudoeste 0 1016.4 -0.2 60
2018-05-02 13:00:00 16.8 10 Sudoeste 18 Oeste 0 1016.3 0.3 59
2018-05-02 12:00:00 16.7 9 Sudoeste 19 Oeste 0 1016.9 0.8 57
2018-05-02 11:00:00 16.1 12 Oeste 17 Oeste 0 1016.6 0.1 51
2018-05-02 10:00:00 17.2 4 Oeste 9 Sudoeste 0 1016 -0.4 44
2018-05-02 09:00:00 16.3 4 Oeste 15 Noroeste 0 1016.1 -0.6 45
2018-05-02 08:00:00 13.6 2 Norte 13 Nordeste 0 1016.5 0 49
2018-05-02 07:00:00 12.1 3 Norte 8 Norte 0 1016.4 -0.4 58
2018-05-02 06:00:00 11.9 2 Norte 7 Norte 0 1016.7 -0.2 61
2018-05-02 05:00:00 13.1 5 Norte 16 Norte 0 1016.5 -0.6 55
2018-05-02 04:00:00 12.3 5 Norte 9 Norte 0 1016.8 0 59
2018-05-02 03:00:00 12.9 3 Norte 12 Nordeste 0 1016.9 0.2 58
2018-05-02 02:00:00 12.9 0 Calma 10 Norte 0 1017.1 0.7 59
2018-05-02 01:00:00 13.5 6 Norte 14 Norte 0 1016.8 1.1 60
2018-05-02 00:00:00 13.5 0 Calma 6 Este 0 1016.7 1.4 59
2018-05-01 23:00:00 13.4 4 Norte 10 Norte 0 1016.4 2.9 67
2018-05-01 22:00:00 14.2 3 Nordeste 13 Noroeste 0 1015.7 2.3 69
2018-05-01 21:00:00 15.2 3 Norte 10 Sudeste 0 1015.3 0.3 54
2018-05-01 20:00:00 16.9 3 Este 18 Nordeste 0 1013.5 -0.3 43
2018-05-01 19:00:00 16.3 9 Norte 23 Nordeste 0 1013.4 0.3 48
2018-05-01 18:00:00 16.4 8 Norte 25 Oeste 0 1015 0.2 45
2018-05-01 17:00:00 17.5 10 Sudoeste 25 Oeste 0 1013.8 -0.2 45
2018-05-01 16:00:00 17.7 6 Sudoeste 30 Oeste 0 1013.1 -0.9 43
2018-05-01 15:00:00 16.1 19 Oeste 27 Oeste 0 1014.8 0.3 67
2018-05-01 14:00:00 18.4 6 Sudoeste 14 Sudoeste 0 1014 -0.3 66
2018-05-01 13:00:00 18.1 4 Sur 9 Sur 0 1014 -0.4 66
2018-05-01 12:00:00 18.3 0 Calma 14 Sudeste 0 1014.5 -0.1 62
2018-05-01 11:00:00 17.6 9 Sudeste 20 Sudeste 0 1014.3 -0.4 54
2018-05-01 10:00:00 17.3 6 Este 18 Norte 0 1014.4 0.2 49
2018-05-01 09:00:00 15.5 8 Norte 21 Nordeste 0 1014.6 0.7 50
2018-05-01 08:00:00 15 4 Norte 13 Nordeste 0 1014.7 0.9 51
2018-05-01 07:00:00 14.7 5 Nordeste 17 Este 0 1014.2 0.5 53
2018-05-01 06:00:00 13.9 5 Nordeste 19 Este 0 1013.9 0.1 53
2018-05-01 05:00:00 14.8 0 Calma 16 Nordeste 0 1013.8 -0.5 51
2018-05-01 04:00:00 15.8 4 Nordeste 18 Este 0 1013.7 -0.5 48
2018-05-01 03:00:00 16.3 5 Nordeste 12 Este 0 1013.8 -0.1 44
2018-05-01 02:00:00 15.5 0 Calma 8 Noroeste 0 1014.3 0.7 61
2018-05-01 01:00:00 15.6 0 Calma 8 Este 0 1014.2 1.1 62
2018-05-01 00:00:00 16 3 Nordeste 14 Este 0 1013.9 1 61
2018-04-30 23:00:00 16.1 0 Calma 5 Oeste 0 1013.6 1 62
2018-04-30 22:00:00 15.8 8 Oeste 25 Oeste 0 1013.1 0.6 72
2018-04-30 21:00:00 16 19 Oeste 40 Oeste 0 1012.9 -0.2 71
2018-04-30 20:00:00 16.2 23 Oeste 43 Oeste 0 1012.6 -0.9 67
2018-04-30 19:00:00 16 23 Oeste 40 Oeste 0 1012.5 -1 70
2018-04-30 18:00:00 15.8 26 Oeste 42 Oeste 0 1013.1 -1 66
2018-04-30 17:00:00 15.5 24 Oeste 40 Oeste 0 1013.5 -1.6 67
2018-04-30 16:00:00 15.8 22 Oeste 39 Oeste 0 1013.5 -1.9 64
2018-04-30 15:00:00 16.1 23 Oeste 37 Oeste 0 1014.1 -1.3 60
2018-04-30 14:00:00 16.2 21 Sudoeste 37 Sudoeste 0 1015.1 0.4 57
2018-04-30 13:00:00 16.4 18 Oeste 27 Oeste 0 1015.4 0.1 60
2018-04-30 12:00:00 15.9 18 Oeste 33 Oeste 0 1015.4 -0.4 61
2018-04-30 11:00:00 18.1 5 Sudoeste 16 Sudoeste 0 1014.7 -1.5 51
2018-04-30 10:00:00 16.6 2 Sudeste 15 Este 0 1015.3 -0.6 49
2018-04-30 09:00:00 15.2 5 Norte 14 Norte 0 1015.8 0.2 51
2018-04-30 08:00:00 13.3 2 Norte 8 Norte 0 1016.2 0.1 58
2018-04-30 07:00:00 12.9 0 Calma 7 Noroeste 0 1015.9 0 59
2018-04-30 06:00:00 12.9 2 Norte 6 Norte 0 1015.6 -0.9 60
2018-04-30 05:00:00 12.8 0 Calma 12 Nordeste 0 1016.1 -1.1 60
2018-04-30 04:00:00 13.8 3 Norte 11 Noroeste 0 1015.9 -1.4 58
2018-04-30 03:00:00 14.4 0 Calma 6 Nordeste 0 1016.5 -0.8 59
2018-04-30 02:00:00 14.2 3 Norte 10 Nordeste 0 1017.2 0.4 60
2018-04-30 01:00:00 14.9 0 Calma 7 Noroeste 0 1017.3 1.4 59
2018-04-30 00:00:00 15.2 0 Calma 15 Oeste 0 1017.3 2.2 61
2018-04-29 23:00:00 15.7 9 Oeste 25 Oeste 0 1016.8 2.2 62
2018-04-29 22:00:00 15.9 18 Oeste 37 Oeste 0 1015.9 1.1 65
2018-04-29 21:00:00 15.6 24 Oeste 49 Oeste 0 1015.1 0.6 72
2018-04-29 20:00:00 15.9 30 Oeste 56 Oeste 0 1014.6 0.3 70
2018-04-29 19:00:00 16 31 Oeste 55 Sudoeste 0 1014.8 0 68
2018-04-29 18:00:00 16.2 28 Sudoeste 57 Oeste 0 1014.5 -1.1 65
2018-04-29 17:00:00 15.8 36 Oeste 58 Sudoeste 0 1014.3 -1.4 68
2018-04-29 16:00:00 15.9 32 Sudoeste 55 Sudoeste 0 1014.8 -0.7 66
2018-04-29 15:00:00 15.9 28 Sudoeste 50 Sudoeste 0 1015.6 0.5 64
2018-04-29 14:00:00 15.5 26 Sudoeste 57 Sudoeste 0 1015.7 0.9 60
2018-04-29 13:00:00 15.6 29 Sudoeste 58 Sudoeste 0 1015.5 1.4 59
2018-04-29 12:00:00 15.4 30 Sudoeste 58 Sudoeste 0 1015.1 1.2 56
2018-04-29 11:00:00 15.2 31 Sudoeste 54 Sudoeste 0 1014.8 1.8 55
2018-04-29 10:00:00 15.4 29 Sudoeste 48 Sudoeste 0 1014.1 1.8 55
2018-04-29 09:00:00 15.2 24 Oeste 45 Oeste 0 1013.9 1.8 54
2018-04-29 08:00:00 14.9 28 Oeste 45 Oeste 0 1013 1.2 58
2018-04-29 07:00:00 14.7 23 Oeste 39 Oeste 0 1012.3 0.6 65
2018-04-29 06:00:00 14.4 23 Oeste 54 Oeste 0 1012.1 0.3 76
2018-04-29 05:00:00 14.6 31 Oeste 53 Oeste 0 1011.8 -0.2 75
2018-04-29 04:00:00 14.8 23 Oeste 38 Oeste 0 1011.7 0.3 69
2018-04-29 03:00:00 15 23 Oeste 51 Oeste 0 1011.8 0.9 61
2018-04-29 02:00:00 15.6 18 Oeste 56 Oeste 0 1012 1.6 58
2018-04-29 01:00:00 15.6 36 Oeste 59 Oeste 0 1011.4 1.8 66
2018-04-29 00:00:00 16.3 31 Oeste 48 Oeste 0 1010.9 1.7 59
2018-04-28 23:00:00 16.8 28 Oeste 42 Oeste 0 1010.4 1.2 59
2018-04-28 22:00:00 17.2 24 Oeste 41 Oeste 0 1009.6 0.8 56
2018-04-28 21:00:00 18.2 21 Oeste 40 Oeste 0 1009.2 0.2 53
2018-04-28 20:00:00 17.6 19 Oeste 42 Sudoeste 0 1009.2 -0.1 66
2018-04-28 19:00:00 18.3 23 Oeste 44 Oeste 0 1008.8 -1.3 64
2018-04-28 18:00:00 18.4 26 Oeste 40 Oeste 0 1009 -1.3 63
2018-04-28 17:00:00 18.3 26 Oeste 43 Oeste 0 1009.3 -2.3 69
2018-04-28 16:00:00 17.9 26 Oeste 46 Oeste 0 1010.1 -1.2 72
2018-04-28 15:00:00 18.3 30 Oeste 47 Oeste 0 1010.3 -1.4 67
2018-04-28 14:00:00 17.7 24 Sudoeste 47 Oeste 0 1011.6 0 75
2018-04-28 13:00:00 18.6 30 Oeste 44 Oeste 0 1011.3 -0.4 65
2018-04-28 12:00:00 18.2 21 Oeste 33 Oeste 0 1011.7 0.4 72
2018-04-28 11:00:00 17.8 12 Oeste 22 Oeste 0 1011.6 -0.1 86
2018-04-28 10:00:00 17 13 Oeste 18 Sudoeste 0 1011.7 0.2 88
2018-04-28 09:00:00 16.7 6 Oeste 10 Oeste 0 1011.3 -0.1 93
2018-04-28 08:00:00 15.6 0 Calma 6 Oeste 0 1011.7 -0.1 95
2018-04-28 07:00:00 16 4 Oeste 11 Oeste 0 1011.5 -0.2 94
2018-04-28 06:00:00 15.8 6 Oeste 9 Oeste 0 1011.4 -0.5 93
2018-04-28 05:00:00 16 3 Oeste 7 Oeste 0 1011.8 -0.8 92
2018-04-28 04:00:00 16.3 2 Noroeste 5 Oeste 0 1011.7 -1.3 91
2018-04-28 03:00:00 16.7 2 Sudoeste 6 Sudoeste 0 1011.9 -1.3 89
2018-04-28 02:00:00 17.1 2 Oeste 7 Oeste 0 1012.6 -0.9 88
2018-04-28 01:00:00 16.9 3 Oeste 5 Oeste 0 1013 -0.1 87
2018-04-28 00:00:00 17.3 6 Oeste 10 Oeste 0 1013.2 0.6 87
2018-04-27 23:00:00 17.1 5 Sudoeste 9 Sudoeste 0 1013.5 1.2 87
2018-04-27 22:00:00 17.3 4 Oeste 12 Sudoeste 0 1013.1 0.4 88
2018-04-27 21:00:00 17.6 8 Oeste 17 Oeste 0 1012.6 -0.2 84
2018-04-27 20:00:00 18.1 10 Oeste 15 Oeste 0 1012.3 0 81
2018-04-27 19:00:00 17.7 10 Oeste 22 Sudoeste 0 1012.7 0.1 83
2018-04-27 18:00:00 18.1 15 Oeste 28 Oeste 0 1012.8 -0.3 76
2018-04-27 17:00:00 19.5 10 Sudoeste 18 Sudoeste 0 1012.3 -2.1 71
2018-04-27 16:00:00 20.2 9 Sudoeste 18 Sur 0 1012.6 -1.8 71
2018-04-27 15:00:00 19.9 8 Sur 25 Sudoeste 0 1013.1 -1.4 75
2018-04-27 14:00:00 19 15 Sudoeste 23 Sudoeste 0 1014.4 0.1 76
2018-04-27 13:00:00 20.3 5 Sur 14 Sudoeste 0 1014.4 0.5 73
2018-04-27 12:00:00 18.5 8 Sudoeste 16 Sudoeste 0 1014.5 0.2 81
2018-04-27 11:00:00 19 5 Sudoeste 14 Sudoeste 0 1014.3 -1.1 77
2018-04-27 10:00:00 20.1 0 Calma 7 Sur 0 1013.9 -1.6 68
2018-04-27 09:00:00 17.7 0 Calma 4 Nordeste 0 1014.3 -1.6 83
2018-04-27 08:00:00 14.8 0 Calma 7 Este 0 1015.4 -0.9 92
2018-04-27 07:00:00 15 2 Nordeste 8 Este 0 1015.5 -1.2 93
2018-04-27 06:00:00 14.6 0 Calma 4 Norte 0 1015.9 -1.5 93
2018-04-27 05:00:00 14.9 0 Calma 4 Norte 0 1016.3 -2 93
2018-04-27 04:00:00 15.5 0 Calma 8 Oeste 0 1016.7 -1.8 93
2018-04-27 03:00:00 15.6 3 Oeste 6 Oeste 0 1017.4 -1.5 93
2018-04-27 02:00:00 15.7 0 Calma 9 Oeste 0 1018.3 -0.9 93
2018-04-27 01:00:00 16.3 6 Oeste 9 Oeste 0 1018.5 -0.6 93
2018-04-27 00:00:00 16.3 4 Oeste 8 Oeste 0 1018.9 0.3 92
2018-04-26 23:00:00 16.2 3 Oeste 8 Oeste 0 1019.2 1.1 92
2018-04-26 22:00:00 16.8 4 Oeste 12 Oeste 0 1019.1 1.2 89
2018-04-26 21:00:00 16.5 7 Oeste 13 Oeste 0 1018.6 0.9 91
2018-04-26 20:00:00 17.2 5 Oeste 13 Oeste 0 1018.1 1.1 93
2018-04-26 19:00:00 17.3 9 Sudoeste 16 Oeste 0 1017.9 1.1 90
2018-04-26 18:00:00 17.9 6 Sudoeste 14 Sudoeste 0 1017.7 0.8 87
2018-04-26 17:00:00 18.3 5 Sudoeste 10 Sudoeste 0 1017 -0.2 81
2018-04-26 16:00:00 19.8 2 Sudoeste 7 Sudoeste 0 1016.8 -0.2 76
2018-04-26 15:00:00 18.7 0 Calma 9 Sudoeste 0 1016.9 -0.2 85
2018-04-26 14:00:00 17.7 6 Oeste 9 Sudoeste 0 1017.2 0.6 87
2018-04-26 13:00:00 17.5 0 Calma 8 Sudeste 0.1 1017 0.3 90
2018-04-26 12:00:00 17.3 2 Sudeste 10 Sudeste 0 1017.1 1.2 93
2018-04-26 11:00:00 17.5 2 Sudeste 9 Este 0.3 1016.6 1.4 93
2018-04-26 10:00:00 17.2 5 Este 10 Este 0.2 1016.7 2.1 93
2018-04-26 09:00:00 16.6 0 Calma 9 Oeste 0.2 1015.9 0.9 92
2018-04-26 08:00:00 16.4 3 Oeste 13 Oeste 0 1015.2 0.1 93
2018-04-26 07:00:00 16.8 2 Este 7 Norte 0 1014.6 -0.6 93
2018-04-26 06:00:00 16.3 0 Calma 5 Este 0.1 1015 -1 93
2018-04-26 05:00:00 16.5 0 Calma 7 Noroeste 0 1015.1 -1 94
2018-04-26 04:00:00 16.3 0 Calma 5 Norte 0 1015.2 -1 94
2018-04-26 03:00:00 16.1 0 Calma 5 Nordeste 0 1016 -0.8 94
2018-04-26 02:00:00 16.2 0 Calma 14 Oeste 0 1016.1 -1.1 94
2018-04-26 01:00:00 16.4 8 Oeste 11 Oeste 0 1016.2 -0.5 95
2018-04-26 00:00:00 16.6 0 Calma 9 Noroeste 0 1016.8 1 96
2018-04-25 23:00:00 16.4 0 Calma 19 Oeste 0 1017.2 1.6 97
2018-04-25 22:00:00 16.3 13 Oeste 21 Oeste 0 1016.7 1.4 97
2018-04-25 21:00:00 16.3 12 Oeste 19 Oeste 0 1015.8 1 97
2018-04-25 20:00:00 16.5 12 Oeste 20 Oeste 0 1015.6 0.5 96
2018-04-25 19:00:00 17 10 Oeste 19 Oeste 0 1015.3 0 93
2018-04-25 18:00:00 16.9 12 Oeste 19 Oeste 0 1014.8 -0.4 93
2018-04-25 17:00:00 16.6 10 Oeste 15 Oeste 0 1015.1 -0.2 93
2018-04-25 16:00:00 17.1 3 Oeste 10 Norte 0 1015.3 -0.7 92
2018-04-25 15:00:00 17.6 2 Sur 9 Noroeste 0.1 1015.2 -0.4 93
2018-04-25 14:00:00 16.7 4 Noroeste 13 Oeste 1.3 1015.3 1.5 94
2018-04-25 13:00:00 16.3 8 Oeste 19 Oeste 0.1 1016 0.6 91
2018-04-25 12:00:00 17.5 0 Calma 8 Sur 0 1015.6 -- 87
2018-04-25 11:00:00 17.8 0 Calma 6 Norte 0 1013.8 -- 93
2018-04-25 10:00:00 16.1 3 Nordeste -- -- -- 1015.4 -- 95
2018-04-25 09:00:00 -- -- -- -- -- -- -- -- --
2018-04-25 08:00:00 -- -- -- -- -- -- -- -- --
2018-04-25 07:00:00 -- -- -- -- -- -- -- -- --
2018-04-25 06:00:00 -- -- -- -- -- -- -- -- --
2018-04-25 05:00:00 -- -- -- -- -- -- -- -- --
2018-04-25 04:00:00 -- -- -- -- -- -- -- -- --
2018-04-25 03:00:00 -- -- -- -- -- -- -- -- --
2018-04-25 02:00:00 -- -- -- -- -- -- -- -- --
2018-04-25 01:00:00 -- -- -- -- -- -- -- -- --
2018-04-25 00:00:00 -- -- -- -- -- -- -- -- --
2018-04-24 23:00:00 -- -- -- -- -- -- -- -- --
2018-04-24 22:00:00 -- -- -- -- -- -- -- -- --
2018-04-24 21:00:00 -- -- -- -- -- -- -- -- --
2018-04-24 20:00:00 -- -- -- -- -- -- -- -- --
2018-04-24 19:00:00 -- -- -- -- -- -- -- -- --
2018-04-24 18:00:00 -- -- -- -- -- -- -- -- --
2018-04-24 17:00:00 -- -- -- -- -- -- -- -- --
2018-04-24 16:00:00 -- -- -- -- -- -- -- -- --
2018-04-24 15:00:00 -- -- -- -- -- -- -- -- --
2018-04-24 14:00:00 -- -- -- -- -- -- -- -- --
2018-04-24 13:00:00 -- -- -- -- -- -- -- -- --
2018-04-24 12:00:00 -- -- -- -- -- -- -- -- --
2018-04-24 11:00:00 -- -- -- -- -- -- -- -- --
2018-04-24 10:00:00 -- -- -- -- -- -- -- -- --
2018-04-24 09:00:00 -- -- -- -- -- -- -- -- --
2018-04-24 08:00:00 -- -- -- -- -- -- -- -- --
2018-04-24 07:00:00 -- -- -- -- -- -- -- -- --
2018-04-24 06:00:00 -- -- -- -- -- -- -- -- --
2018-04-24 05:00:00 -- -- -- -- -- -- -- -- --
2018-04-24 04:00:00 -- -- -- -- -- -- -- -- --
2018-04-24 03:00:00 -- -- -- -- -- -- -- -- --
2018-04-24 02:00:00 -- -- -- -- -- -- -- -- --
2018-04-24 01:00:00 -- -- -- -- -- -- -- -- --
2018-04-24 00:00:00 -- -- -- -- -- -- -- -- --
2018-04-23 23:00:00 -- -- -- -- -- -- -- -- --
2018-04-23 22:00:00 -- -- -- -- -- -- -- -- --
2018-04-23 21:00:00 -- -- -- -- -- -- -- -- --
2018-04-23 20:00:00 -- -- -- -- -- -- -- -- --
2018-04-23 19:00:00 -- -- -- -- -- -- -- -- --
2018-04-23 18:00:00 -- -- -- -- -- -- -- -- --
2018-04-23 17:00:00 -- -- -- -- -- -- -- -- --
2018-04-23 16:00:00 -- -- -- -- -- -- -- -- --
2018-04-23 15:00:00 -- -- -- -- -- -- -- -- --
2018-04-23 14:00:00 -- -- -- -- -- -- -- -- --
2018-04-23 13:00:00 -- -- -- -- -- -- -- -- --
2018-04-23 12:00:00 -- -- -- -- -- -- -- -- --
2018-04-23 11:00:00 -- -- -- -- -- -- -- -- --
2018-04-23 10:00:00 -- -- -- -- -- -- -- -- --
2018-04-23 09:00:00 -- -- -- -- -- -- -- -- --
2018-04-23 08:00:00 -- -- -- -- -- -- -- -- --
2018-04-23 07:00:00 -- -- -- -- -- -- -- -- --
2018-04-23 06:00:00 -- -- -- -- -- -- -- -- --
2018-04-23 05:00:00 -- -- -- -- -- -- -- -- --
2018-04-23 04:00:00 -- -- -- -- -- -- -- -- --
2018-04-23 03:00:00 -- -- -- -- -- -- -- -- --
2018-04-23 02:00:00 -- -- -- -- -- -- -- -- --
2018-04-23 01:00:00 -- -- -- -- -- -- -- -- --
2018-04-23 00:00:00 -- -- -- -- -- -- -- -- --
2018-04-22 23:00:00 -- -- -- -- -- -- -- -- --
2018-04-22 22:00:00 -- -- -- -- -- -- -- -- --
2018-04-22 21:00:00 -- -- -- -- -- -- -- -- --
2018-04-22 20:00:00 -- -- -- -- -- -- -- -- --
2018-04-22 19:00:00 -- -- -- -- -- -- -- -- --
2018-04-22 18:00:00 -- -- -- -- -- -- -- -- --
2018-04-22 17:00:00 -- -- -- -- -- -- -- -- --
2018-04-22 16:00:00 -- -- -- -- -- -- -- -- --
2018-04-22 15:00:00 -- -- -- -- -- -- -- -- --
2018-04-22 14:00:00 -- -- -- -- -- -- -- -- --
2018-04-22 13:00:00 -- -- -- -- -- -- -- -- --
2018-04-22 12:00:00 -- -- -- -- -- -- -- -- --
2018-04-22 11:00:00 -- -- -- -- -- -- -- -- --
2018-04-22 10:00:00 -- -- -- -- -- -- -- -- --
2018-04-22 09:00:00 -- -- -- -- -- -- -- -- --
2018-04-22 08:00:00 -- -- -- -- -- -- -- -- --
2018-04-22 07:00:00 -- -- -- -- -- -- -- -- --
2018-04-22 06:00:00 -- -- -- -- -- -- -- -- --
2018-04-22 05:00:00 -- -- -- -- -- -- -- -- --
2018-04-22 04:00:00 -- -- -- -- -- -- -- -- --
2018-04-22 03:00:00 -- -- -- -- -- -- -- -- --
2018-04-22 02:00:00 -- -- -- -- -- -- -- -- --
2018-04-22 01:00:00 -- -- -- -- -- -- -- -- --
2018-04-22 00:00:00 -- -- -- -- -- -- -- -- --